createdAt,value
2017-10-27T00:02:08.484Z,14.10
2017-10-27T00:04:35.246Z,14.10
2017-10-27T00:07:04.518Z,14.10
2017-10-27T00:09:45.240Z,14.10
2017-10-27T00:12:17.287Z,14.10
2017-10-27T00:14:47.738Z,14.00
2017-10-27T00:17:14.851Z,14.10
2017-10-27T00:19:43.657Z,14.10
2017-10-27T00:22:12.425Z,14.00
2017-10-27T00:24:38.453Z,14.00
2017-10-27T00:27:04.485Z,14.00
2017-10-27T00:29:30.513Z,14.00
2017-10-27T00:32:00.317Z,14.00
2017-10-27T00:34:26.290Z,14.00
2017-10-27T00:36:58.069Z,14.00
2017-10-27T00:39:30.526Z,14.00
2017-10-27T00:41:56.532Z,14.00
2017-10-27T00:44:30.468Z,14.00
2017-10-27T00:47:01.102Z,14.00
2017-10-27T00:49:29.064Z,14.00
2017-10-27T00:51:57.886Z,14.00
2017-10-27T00:54:24.910Z,14.00
2017-10-27T00:56:59.506Z,14.00
2017-10-27T00:59:33.585Z,14.00
2017-10-27T01:01:59.557Z,14.00
2017-10-27T01:04:29.574Z,14.00
2017-10-27T01:06:58.309Z,14.00
2017-10-27T01:09:30.566Z,14.00
2017-10-27T01:12:00.171Z,14.00
2017-10-27T01:14:30.641Z,13.90
2017-10-27T01:17:09.441Z,13.90
2017-10-27T01:19:40.962Z,13.90
2017-10-27T01:22:20.408Z,13.90
2017-10-27T01:24:58.222Z,13.90
2017-10-27T01:27:28.541Z,13.90
2017-10-27T01:29:58.030Z,13.90
2017-10-27T01:32:30.529Z,14.00
2017-10-27T01:34:58.491Z,14.00
2017-10-27T01:37:28.401Z,14.00
2017-10-27T01:40:02.832Z,14.00
2017-10-27T01:42:36.227Z,14.00
2017-10-27T01:45:17.047Z,14.00
2017-10-27T01:47:46.682Z,14.00
2017-10-27T01:50:27.318Z,14.00
2017-10-27T01:52:57.812Z,14.00
2017-10-27T01:55:38.903Z,14.00
2017-10-27T01:58:11.563Z,14.00
2017-10-27T02:00:40.949Z,14.00
2017-10-27T02:03:32.527Z,14.10
2017-10-27T02:11:46.449Z,14.10
2017-10-27T02:14:19.010Z,14.10
2017-10-27T02:16:50.518Z,14.10
2017-10-27T02:19:17.482Z,14.10
2017-10-27T02:21:47.024Z,14.20
2017-10-27T02:24:25.232Z,14.20
2017-10-27T02:26:52.953Z,14.20
2017-10-27T02:29:24.538Z,14.20
2017-10-27T02:31:55.055Z,14.30
2017-10-27T02:34:26.529Z,14.20
2017-10-27T02:36:53.258Z,14.30
2017-10-27T02:39:26.602Z,14.30
2017-10-27T02:41:53.645Z,14.30
2017-10-27T02:44:19.647Z,14.30
2017-10-27T02:46:56.652Z,14.30
2017-10-27T02:49:27.290Z,14.30
2017-10-27T02:51:59.978Z,14.40
2017-10-27T02:54:25.942Z,14.30
2017-10-27T02:56:56.115Z,14.30
2017-10-27T02:59:29.769Z,14.30
2017-10-27T03:01:55.750Z,14.30
2017-10-27T03:04:22.558Z,14.30
2017-10-27T03:06:48.597Z,14.30
2017-10-27T03:09:14.622Z,14.30
2017-10-27T03:11:43.983Z,14.30
2017-10-27T03:14:17.550Z,14.30
2017-10-27T03:17:00.224Z,14.20
2017-10-27T03:19:26.172Z,14.20
2017-10-27T03:21:52.158Z,14.10
2017-10-27T03:24:21.793Z,14.10
2017-10-27T03:26:48.790Z,14.00
2017-10-27T03:29:15.538Z,14.00
2017-10-27T03:31:42.273Z,13.90
2017-10-27T03:34:13.393Z,13.90
2017-10-27T03:36:39.444Z,13.90
2017-10-27T03:39:06.176Z,13.90
2017-10-27T03:41:32.228Z,13.90
2017-10-27T03:44:12.434Z,13.80
2017-10-27T03:46:44.960Z,13.80
2017-10-27T03:49:11.640Z,13.80
2017-10-27T03:51:52.015Z,13.80
2017-10-27T03:54:21.546Z,13.80
2017-10-27T03:56:49.538Z,13.80
2017-10-27T03:59:16.276Z,13.80
2017-10-27T04:01:47.938Z,13.80
2017-10-27T04:04:14.681Z,13.80
2017-10-27T04:06:53.501Z,13.80
2017-10-27T04:09:20.242Z,13.80
2017-10-27T04:11:46.192Z,13.80
2017-10-27T04:14:23.068Z,13.80
2017-10-27T04:16:53.883Z,13.80
2017-10-27T04:19:19.906Z,13.80
2017-10-27T04:21:45.933Z,13.80
2017-10-27T04:24:12.001Z,13.80
2017-10-27T04:26:39.941Z,13.80
2017-10-27T04:29:11.519Z,13.80
2017-10-27T04:31:42.138Z,13.80
2017-10-27T04:34:08.215Z,13.80
2017-10-27T04:36:35.234Z,13.80
2017-10-27T04:39:08.130Z,13.80
2017-10-27T04:41:35.872Z,13.80
2017-10-27T04:44:03.648Z,13.80
2017-10-27T04:46:31.394Z,13.70
2017-10-27T04:49:05.878Z,13.70
2017-10-27T04:51:31.955Z,13.70
2017-10-27T04:53:58.078Z,13.70
2017-10-27T04:56:24.144Z,13.70
2017-10-27T04:58:53.729Z,13.70
2017-10-27T05:01:19.769Z,13.70
2017-10-27T05:03:49.837Z,13.60
2017-10-27T05:06:23.408Z,13.60
2017-10-27T05:08:54.850Z,13.50
2017-10-27T05:11:21.509Z,13.50
2017-10-27T05:13:48.222Z,13.50
2017-10-27T05:16:14.254Z,13.50
2017-10-27T05:18:46.265Z,13.50
2017-10-27T05:21:20.542Z,13.50
2017-10-27T05:23:52.669Z,13.50
2017-10-27T05:26:29.819Z,13.40
2017-10-27T05:28:56.543Z,13.40
2017-10-27T05:31:22.575Z,13.40
2017-10-27T05:33:48.581Z,13.40
2017-10-27T05:36:14.634Z,13.40
2017-10-27T05:38:45.249Z,13.40
2017-10-27T05:41:18.779Z,13.40
2017-10-27T05:43:47.454Z,13.40
2017-10-27T05:46:13.554Z,13.40
2017-10-27T05:48:46.421Z,13.40
2017-10-27T05:51:23.987Z,13.40
2017-10-27T05:53:50.694Z,13.30
2017-10-27T05:56:16.713Z,13.30
2017-10-27T05:58:44.694Z,13.30
2017-10-27T06:01:10.612Z,13.30
2017-10-27T06:03:50.221Z,13.30
2017-10-27T06:06:16.155Z,13.30
2017-10-27T06:08:47.437Z,13.20
2017-10-27T06:11:19.053Z,13.20
2017-10-27T06:13:48.742Z,13.20
2017-10-27T06:16:17.491Z,13.20
2017-10-27T06:18:48.166Z,13.10
2017-10-27T06:21:14.898Z,13.10
2017-10-27T06:23:40.929Z,13.10
2017-10-27T06:26:10.961Z,13.10
2017-10-27T06:28:45.172Z,13.10
2017-10-27T06:31:17.503Z,13.10
2017-10-27T06:33:45.513Z,13.00
2017-10-27T06:36:20.569Z,13.00
2017-10-27T06:38:48.550Z,13.00
2017-10-27T06:41:18.073Z,13.00
2017-10-27T06:43:52.350Z,13.00
2017-10-27T06:46:21.933Z,13.00
2017-10-27T06:48:51.250Z,13.00
2017-10-27T06:51:17.277Z,13.00
2017-10-27T06:53:43.348Z,13.00
2017-10-27T06:56:09.330Z,13.00
2017-10-27T06:58:38.845Z,13.00
2017-10-27T07:01:04.907Z,13.00
2017-10-27T07:03:36.741Z,13.00
2017-10-27T07:06:02.769Z,13.00
2017-10-27T07:08:28.708Z,13.00
2017-10-27T07:10:54.770Z,12.90
2017-10-27T07:13:21.798Z,12.80
2017-10-27T07:15:57.237Z,12.80
2017-10-27T07:18:30.686Z,12.80
2017-10-27T07:21:03.018Z,12.80
2017-10-27T07:23:36.495Z,12.90
2017-10-27T07:26:10.773Z,12.90
2017-10-27T07:28:52.241Z,12.90
2017-10-27T07:31:20.210Z,12.90
2017-10-27T07:36:52.305Z,13.00
2017-10-27T07:39:18.233Z,12.90
2017-10-27T07:42:05.354Z,12.90
2017-10-27T07:44:31.409Z,13.00
2017-10-27T07:47:03.500Z,13.00
2017-10-27T07:49:52.359Z,13.00
2017-10-27T07:52:18.328Z,13.00
2017-10-27T07:54:52.005Z,13.10
2017-10-27T07:57:37.370Z,13.20
2017-10-27T08:00:07.638Z,13.40
2017-10-27T08:02:48.886Z,13.50
2017-10-27T08:05:18.686Z,13.70
2017-10-27T08:08:02.932Z,13.80
2017-10-27T08:10:34.590Z,13.90
2017-10-27T08:13:07.982Z,14.00
2017-10-27T08:15:37.767Z,14.10
2017-10-27T08:18:06.954Z,14.10
2017-10-27T08:20:36.580Z,14.10
2017-10-27T08:23:22.084Z,14.10
2017-10-27T08:25:56.413Z,14.10
2017-10-27T08:28:22.376Z,14.10
2017-10-27T08:30:48.423Z,14.10
2017-10-27T08:33:14.463Z,14.10
2017-10-27T08:35:46.648Z,14.10
2017-10-27T08:38:13.303Z,14.00
2017-10-27T08:40:42.890Z,14.00
2017-10-27T08:43:17.512Z,14.00
2017-10-27T08:46:00.161Z,14.00
2017-10-27T08:48:28.176Z,14.00
2017-10-27T08:50:54.118Z,14.00
2017-10-27T08:53:20.162Z,14.10
2017-10-27T08:55:50.958Z,14.30
2017-10-27T08:58:16.946Z,14.20
2017-10-27T09:00:42.905Z,14.30
2017-10-27T09:03:08.854Z,14.40
2017-10-27T09:05:34.929Z,14.50
2017-10-27T09:08:04.189Z,14.60
2017-10-27T09:10:34.382Z,14.60
2017-10-27T09:13:01.103Z,14.70
2017-10-27T09:15:45.472Z,14.80
2017-10-27T09:18:11.516Z,14.70
2017-10-27T09:20:43.414Z,14.80
2017-10-27T09:23:13.057Z,14.80
2017-10-27T09:25:48.433Z,14.70
2017-10-27T09:28:14.347Z,14.60
2017-10-27T09:30:44.630Z,14.70
2017-10-27T09:33:33.757Z,14.80
2017-10-27T09:36:05.298Z,14.70
2017-10-27T09:38:31.209Z,14.90
2017-10-27T09:41:00.764Z,15.10
2017-10-27T09:43:34.285Z,15.20
2017-10-27T09:48:57.344Z,15.50
2017-10-27T09:51:23.345Z,15.60
2017-10-27T09:54:02.355Z,15.70
2017-10-27T09:56:29.453Z,15.70
2017-10-27T09:59:02.966Z,16.00
2017-10-27T10:01:30.689Z,16.10
2017-10-27T10:04:00.853Z,16.10
2017-10-27T10:06:31.446Z,16.30
2017-10-27T10:08:58.398Z,16.30
2017-10-27T10:11:29.562Z,16.40
2017-10-27T10:13:55.581Z,16.40
2017-10-27T10:16:25.617Z,16.50
2017-10-27T10:18:51.534Z,16.50
2017-10-27T10:21:21.474Z,16.60
2017-10-27T10:23:50.155Z,16.90
2017-10-27T10:26:18.137Z,16.90
2017-10-27T10:28:46.914Z,17.20
2017-10-27T10:31:16.154Z,17.20
2017-10-27T10:33:42.090Z,17.20
2017-10-27T10:36:14.057Z,17.20
2017-10-27T10:38:50.594Z,17.20
2017-10-27T10:41:23.923Z,17.50
2017-10-27T10:43:49.853Z,17.50
2017-10-27T10:46:15.843Z,17.60
2017-10-27T10:48:44.557Z,18.00
2017-10-27T10:51:35.092Z,18.00
2017-10-27T10:54:02.085Z,18.10
2017-10-27T10:56:39.483Z,17.90
2017-10-27T10:59:20.045Z,17.80
2017-10-27T11:02:00.618Z,17.50
2017-10-27T11:04:26.523Z,17.50
2017-10-27T11:06:56.957Z,17.40
2017-10-27T11:09:23.638Z,17.40
2017-10-27T11:11:49.562Z,17.40
2017-10-27T11:14:15.518Z,17.40
2017-10-27T11:16:41.445Z,17.50
2017-10-27T11:19:09.449Z,17.50
2017-10-27T11:21:36.166Z,17.50
2017-10-27T11:24:02.115Z,17.50
2017-10-27T11:26:30.845Z,17.70
2017-10-27T11:28:56.826Z,17.70
2017-10-27T11:31:26.843Z,18.00
2017-10-27T11:33:52.752Z,18.10
2017-10-27T11:36:18.705Z,18.20
2017-10-27T11:38:44.612Z,18.20
2017-10-27T11:41:27.891Z,18.10
2017-10-27T11:43:53.845Z,17.90
2017-10-27T11:46:22.960Z,17.80
2017-10-27T11:52:02.092Z,17.70
2017-10-27T11:54:30.088Z,17.80
2017-10-27T11:56:56.130Z,17.90
2017-10-27T11:59:34.307Z,18.20
2017-10-27T12:02:00.234Z,18.40
2017-10-27T12:04:34.278Z,18.50
2017-10-27T12:07:06.382Z,18.40
2017-10-27T12:09:49.979Z,18.40
2017-10-27T12:12:30.554Z,18.20
2017-10-27T12:15:10.326Z,18.20
2017-10-27T12:17:47.150Z,18.10
2017-10-27T12:20:13.171Z,18.20
2017-10-27T12:22:39.179Z,18.50
2017-10-27T12:25:11.413Z,18.80
2017-10-27T12:27:45.018Z,19.00
2017-10-27T12:30:16.525Z,19.00
2017-10-27T12:32:42.585Z,19.20
2017-10-27T12:35:15.123Z,19.40
2017-10-27T12:37:41.153Z,19.70
2017-10-27T12:40:07.234Z,20.00
2017-10-27T12:42:36.638Z,20.30
2017-10-27T12:45:06.326Z,20.70
2017-10-27T12:47:37.105Z,21.10
2017-10-27T12:50:16.640Z,21.10
2017-10-27T12:52:42.586Z,21.20
2017-10-27T12:55:08.590Z,21.20
2017-10-27T12:57:52.230Z,21.10
2017-10-27T13:00:18.139Z,20.90
2017-10-27T13:02:47.264Z,20.60
2017-10-27T13:05:16.627Z,20.20
2017-10-27T13:07:57.157Z,19.70
2017-10-27T13:13:23.425Z,21.60
2017-10-27T13:15:51.218Z,23.50
2017-10-27T13:18:23.090Z,23.40
2017-10-27T13:20:52.801Z,25.40
2017-10-27T13:23:29.190Z,27.10
2017-10-27T13:26:08.698Z,28.70
2017-10-27T13:29:01.282Z,29.90
2017-10-27T13:31:27.323Z,30.90
2017-10-27T13:34:18.139Z,31.60
2017-10-27T13:36:53.233Z,31.80
2017-10-27T13:39:33.870Z,31.80
2017-10-27T13:42:07.463Z,32.50
2017-10-27T13:44:33.472Z,33.00
2017-10-27T13:47:13.849Z,32.90
2017-10-27T13:49:39.755Z,32.90
2017-10-27T13:52:10.046Z,32.10
2017-10-27T13:54:46.471Z,32.10
2017-10-27T13:57:13.530Z,32.10
2017-10-27T13:59:39.465Z,32.30
2017-10-27T14:02:26.589Z,32.80
2017-10-27T14:05:03.299Z,33.30
2017-10-27T14:07:43.836Z,34.00
2017-10-27T14:10:11.855Z,34.00
2017-10-27T14:12:53.646Z,34.10
2017-10-27T14:15:25.287Z,34.20
2017-10-27T14:17:57.812Z,34.00
2017-10-27T14:20:38.357Z,34.00
2017-10-27T14:23:29.172Z,34.00
2017-10-27T14:26:05.561Z,33.80
2017-10-27T14:28:33.539Z,33.20
2017-10-27T14:31:10.665Z,31.70
2017-10-27T14:33:40.182Z,30.10
2017-10-27T14:36:23.690Z,28.70
2017-10-27T14:38:54.985Z,27.40
2017-10-27T14:41:22.986Z,26.20
2017-10-27T14:44:06.910Z,25.20
2017-10-27T14:46:39.621Z,24.30
2017-10-27T14:49:06.282Z,22.80
2017-10-27T14:51:36.615Z,22.70
2017-10-27T14:54:07.107Z,22.20
2017-10-27T14:56:33.175Z,21.60
2017-10-27T14:59:03.428Z,21.00
2017-10-27T15:01:29.381Z,20.50
2017-10-27T15:04:04.010Z,20.00
2017-10-27T15:06:40.026Z,19.50
2017-10-27T15:09:12.480Z,19.00
2017-10-27T15:11:43.928Z,18.60
2017-10-27T15:14:13.402Z,18.20
2017-10-27T15:16:39.322Z,17.90
2017-10-27T15:19:05.270Z,17.60
2017-10-27T15:21:39.665Z,17.40
2017-10-27T15:24:16.277Z,17.20
2017-10-27T15:26:42.977Z,16.70
2017-10-27T15:29:11.023Z,16.70
2017-10-27T15:31:39.062Z,16.60
2017-10-27T15:37:09.509Z,16.20
2017-10-27T15:39:53.262Z,16.20
2017-10-27T15:42:20.278Z,16.10
2017-10-27T15:44:47.014Z,15.90
2017-10-27T15:47:13.025Z,15.90
2017-10-27T15:50:03.819Z,15.70
2017-10-27T15:52:31.790Z,15.60
2017-10-27T15:55:13.604Z,15.50
2017-10-27T15:57:57.067Z,15.40
2017-10-27T16:00:24.086Z,15.20
2017-10-27T16:02:58.214Z,15.10
2017-10-27T16:05:25.948Z,14.90
2017-10-27T16:08:16.538Z,14.80
2017-10-27T16:11:03.342Z,14.70
2017-10-27T16:13:34.590Z,14.50
2017-10-27T16:16:07.714Z,14.30
2017-10-27T16:18:34.495Z,13.90
2017-10-27T16:21:04.314Z,13.90
2017-10-27T16:23:43.743Z,13.70
2017-10-27T16:26:20.393Z,13.50
2017-10-27T16:28:47.113Z,13.30
2017-10-27T16:31:13.141Z,13.20
2017-10-27T16:33:39.162Z,13.20
2017-10-27T16:36:05.211Z,13.10
2017-10-27T16:38:38.664Z,12.90
2017-10-27T16:41:13.395Z,12.90
2017-10-27T16:43:43.846Z,12.80
2017-10-27T16:46:09.958Z,12.70
2017-10-27T16:48:40.851Z,12.60
2017-10-27T16:51:09.693Z,12.50
2017-10-27T16:53:40.872Z,12.50
2017-10-27T16:56:07.864Z,12.40
2017-10-27T16:58:33.834Z,12.40
2017-10-27T17:01:05.391Z,12.30
2017-10-27T17:03:34.905Z,12.30
2017-10-27T17:06:00.987Z,12.20
2017-10-27T17:08:27.994Z,12.20
2017-10-27T17:11:00.404Z,12.10
2017-10-27T17:13:31.924Z,12.10
2017-10-27T17:15:57.982Z,12.10
2017-10-27T17:18:36.577Z,12.00
2017-10-27T17:21:03.229Z,11.90
2017-10-27T17:23:37.275Z,11.90
2017-10-27T17:26:03.258Z,11.90
2017-10-27T17:28:29.297Z,11.90
2017-10-27T17:30:58.809Z,11.70
2017-10-27T17:33:27.076Z,11.60
2017-10-27T17:35:53.612Z,11.60
2017-10-27T17:38:19.667Z,11.60
2017-10-27T17:40:53.795Z,11.50
2017-10-27T17:43:19.851Z,11.40
2017-10-27T17:45:47.881Z,11.40
2017-10-27T17:48:21.103Z,11.30
2017-10-27T17:50:51.830Z,11.30
2017-10-27T17:53:18.829Z,11.30
2017-10-27T17:55:44.763Z,11.30
2017-10-27T17:58:10.798Z,11.20
2017-10-27T18:00:37.763Z,11.20
2017-10-27T18:03:05.593Z,11.10
2017-10-27T18:05:56.394Z,11.10
2017-10-27T18:08:23.365Z,11.10
2017-10-27T18:10:49.344Z,11.10
2017-10-27T18:13:22.324Z,11.00
2017-10-27T18:15:49.445Z,11.10
2017-10-27T18:18:19.475Z,11.10
2017-10-27T18:20:54.976Z,11.20
2017-10-27T18:23:42.508Z,11.10
2017-10-27T18:26:16.283Z,11.20
2017-10-27T18:29:07.737Z,11.20
2017-10-27T18:31:33.665Z,11.30
2017-10-27T18:34:05.742Z,11.30
2017-10-27T18:36:31.788Z,11.40
2017-10-27T18:38:58.527Z,11.40
2017-10-27T18:41:25.213Z,11.50
2017-10-27T18:43:51.181Z,11.50
2017-10-27T18:46:31.401Z,11.50
2017-10-27T18:49:03.095Z,11.50
2017-10-27T18:51:29.079Z,11.60
2017-10-27T18:53:56.079Z,11.60
2017-10-27T18:56:26.640Z,11.60
2017-10-27T18:58:58.998Z,11.50
2017-10-27T19:01:26.784Z,11.50
2017-10-27T19:03:52.821Z,11.50
2017-10-27T19:06:29.471Z,11.50
2017-10-27T19:09:00.191Z,11.40
2017-10-27T19:11:26.151Z,11.40
2017-10-27T19:13:54.254Z,11.30
2017-10-27T19:16:27.016Z,11.30
2017-10-27T19:18:59.277Z,11.20
2017-10-27T19:21:27.027Z,11.00
2017-10-27T19:23:55.739Z,11.00
2017-10-27T19:26:22.790Z,10.90
2017-10-27T19:28:51.629Z,10.90
2017-10-27T19:31:18.602Z,10.90
2017-10-27T19:33:45.634Z,10.90
2017-10-27T19:36:13.635Z,11.00
2017-10-27T19:38:39.667Z,11.00
2017-10-27T19:41:05.648Z,10.90
2017-10-27T19:43:33.674Z,10.90
2017-10-27T19:46:04.732Z,10.90
2017-10-27T19:48:31.442Z,10.80
2017-10-27T19:51:02.034Z,10.70
2017-10-27T19:53:29.049Z,10.70
2017-10-27T19:55:56.816Z,10.60
2017-10-27T19:58:23.590Z,10.60
2017-10-27T20:00:52.673Z,10.60
2017-10-27T20:03:20.475Z,10.50
2017-10-27T20:05:46.461Z,10.50
2017-10-27T20:08:25.712Z,10.50
2017-10-27T20:10:52.366Z,10.40
2017-10-27T20:16:11.277Z,10.40
2017-10-27T20:18:40.719Z,10.40
2017-10-27T20:21:11.178Z,10.30
2017-10-27T20:23:39.119Z,10.30
2017-10-27T20:26:05.936Z,10.30
2017-10-27T20:28:31.858Z,10.20
2017-10-27T20:31:06.334Z,10.30
2017-10-27T20:33:34.141Z,10.20
2017-10-27T20:36:01.129Z,10.20
2017-10-27T20:38:31.702Z,10.20
2017-10-27T20:40:57.617Z,10.20
2017-10-27T20:43:31.022Z,10.20
2017-10-27T20:46:04.095Z,10.20
2017-10-27T20:48:37.742Z,10.10
2017-10-27T20:51:07.653Z,10.10
2017-10-27T20:53:33.623Z,10.10
2017-10-27T20:56:06.027Z,10.00
2017-10-27T20:58:34.789Z,10.00
2017-10-27T21:01:01.774Z,10.00
2017-10-27T21:03:27.710Z,10.00
2017-10-27T21:06:02.273Z,9.90
2017-10-27T21:08:31.812Z,9.90
2017-10-27T21:11:01.413Z,9.90
2017-10-27T21:13:27.540Z,9.90
2017-10-27T21:15:54.817Z,9.90
2017-10-27T21:18:21.841Z,9.90
2017-10-27T21:20:47.795Z,9.90
2017-10-27T21:23:15.738Z,9.90
2017-10-27T21:25:52.033Z,9.90
2017-10-27T21:28:22.718Z,9.90
2017-10-27T21:30:48.730Z,9.90
2017-10-27T21:33:18.590Z,9.90
2017-10-27T21:35:50.104Z,9.90
2017-10-27T21:38:16.081Z,9.90
2017-10-27T21:40:42.049Z,9.90
2017-10-27T21:43:11.737Z,10.00
2017-10-27T21:45:45.251Z,10.00
2017-10-27T21:48:25.358Z,10.10
2017-10-27T21:50:59.420Z,10.10
2017-10-27T21:56:23.998Z,10.20
2017-10-27T21:58:50.929Z,10.20
2017-10-27T22:01:28.154Z,10.20
2017-10-27T22:06:48.952Z,10.30
2017-10-27T22:09:15.687Z,10.40
2017-10-27T22:11:41.706Z,10.40
2017-10-27T22:14:07.776Z,10.40
2017-10-27T22:16:33.808Z,10.50
2017-10-27T22:19:06.577Z,10.50
2017-10-27T22:21:33.445Z,10.60
2017-10-27T22:24:05.601Z,10.60
2017-10-27T22:26:40.938Z,10.70
2017-10-27T22:29:11.565Z,10.70
2017-10-27T22:31:48.967Z,10.70
2017-10-27T22:34:27.712Z,10.70
2017-10-27T22:37:05.278Z,10.70
2017-10-27T22:39:36.038Z,10.60
2017-10-27T22:42:02.017Z,10.60
2017-10-27T22:44:28.140Z,10.60
2017-10-27T22:46:59.997Z,10.60
2017-10-27T22:49:48.361Z,10.60
2017-10-27T22:52:15.024Z,10.50
2017-10-27T22:54:42.741Z,10.50
2017-10-27T23:00:13.394Z,10.40
2017-10-27T23:02:58.846Z,10.40
2017-10-27T23:05:26.998Z,10.40
2017-10-27T23:08:19.509Z,10.30
2017-10-27T23:13:46.821Z,10.20
2017-10-27T23:16:13.019Z,10.20
2017-10-27T23:18:40.099Z,10.20
2017-10-27T23:21:09.473Z,10.20
2017-10-27T23:23:36.557Z,10.10
2017-10-27T23:26:12.812Z,10.10
2017-10-27T23:28:49.128Z,10.00
2017-10-27T23:31:28.913Z,10.00
2017-10-27T23:34:01.473Z,9.90
2017-10-27T23:36:28.953Z,9.80
2017-10-27T23:39:08.376Z,9.80
2017-10-27T23:41:41.440Z,9.80
2017-10-27T23:44:18.758Z,9.70
2017-10-27T23:46:58.149Z,9.70
2017-10-27T23:49:46.875Z,9.70
2017-10-27T23:52:27.809Z,9.60
2017-10-27T23:55:00.316Z,9.60
2017-10-27T23:57:26.250Z,9.60
